createdAt,value
2018-11-26T00:01:26.483Z,108.43
2018-11-26T00:04:01.725Z,101.40
2018-11-26T00:06:37.235Z,109.63
2018-11-26T00:09:12.921Z,100.70
2018-11-26T00:11:48.444Z,106.40
2018-11-26T00:14:24.479Z,88.47
2018-11-26T00:19:38.847Z,106.00
2018-11-26T00:22:14.202Z,97.97
2018-11-26T00:24:50.182Z,107.70
2018-11-26T00:27:25.831Z,97.67
2018-11-26T00:30:01.810Z,99.10
2018-11-26T00:32:37.483Z,97.90
2018-11-26T00:35:13.553Z,97.93
2018-11-26T00:37:49.264Z,93.60
2018-11-26T00:40:24.465Z,95.30
2018-11-26T00:43:00.697Z,93.80
2018-11-26T00:45:36.327Z,98.27
2018-11-26T00:48:12.086Z,94.27
2018-11-26T00:50:48.020Z,105.57
2018-11-26T00:53:23.042Z,95.17
2018-11-26T00:55:58.918Z,98.57
2018-11-26T00:58:33.978Z,90.57
2018-11-26T01:01:09.963Z,98.27
2018-11-26T01:03:45.631Z,88.50
2018-11-26T01:06:21.583Z,91.70
2018-11-26T01:08:57.386Z,99.63
2018-11-26T01:11:33.206Z,91.77
2018-11-26T01:14:08.997Z,98.17
2018-11-26T01:16:44.015Z,73.37
2018-11-26T01:19:20.903Z,94.10
2018-11-26T01:21:56.981Z,92.90
2018-11-26T01:24:32.789Z,93.47
2018-11-26T01:27:09.856Z,89.07
2018-11-26T01:29:45.723Z,91.33
2018-11-26T01:32:21.549Z,88.07
2018-11-26T01:34:57.518Z,93.53
2018-11-26T01:37:33.351Z,93.07
2018-11-26T01:40:13.298Z,87.93
2018-11-26T01:42:49.416Z,89.97
2018-11-26T01:45:25.127Z,86.40
2018-11-26T01:48:01.011Z,91.63
2018-11-26T01:50:36.281Z,85.63
2018-11-26T01:53:11.869Z,92.73
2018-11-26T01:55:49.264Z,78.50
2018-11-26T01:58:25.005Z,88.07
2018-11-26T02:01:00.999Z,92.93
2018-11-26T02:03:36.712Z,91.43
2018-11-26T02:06:12.731Z,90.17
2018-11-26T02:08:48.579Z,96.77
2018-11-26T02:11:24.597Z,87.70
2018-11-26T02:14:00.098Z,87.50
2018-11-26T02:16:36.178Z,91.00
2018-11-26T02:19:11.981Z,85.70
2018-11-26T02:21:47.918Z,87.40
2018-11-26T02:24:23.717Z,91.33
2018-11-26T02:26:58.852Z,89.17
2018-11-26T02:29:34.573Z,86.30
2018-11-26T02:32:10.542Z,98.20
2018-11-26T02:34:46.202Z,95.67
2018-11-26T02:37:21.374Z,85.40
2018-11-26T02:39:57.125Z,92.20
2018-11-26T02:42:32.187Z,89.80
2018-11-26T02:45:07.498Z,100.20
2018-11-26T02:47:42.798Z,100.20
2018-11-26T02:50:18.527Z,97.77
2018-11-26T02:52:53.504Z,80.00
2018-11-26T02:55:29.326Z,91.33
2018-11-26T02:58:04.424Z,99.63
2018-11-26T03:00:40.298Z,91.57
2018-11-26T03:03:16.457Z,95.87
2018-11-26T03:05:52.146Z,91.73
2018-11-26T03:08:27.858Z,98.33
2018-11-26T03:11:03.643Z,92.87
2018-11-26T03:13:39.307Z,108.70
2018-11-26T03:16:15.039Z,95.53
2018-11-26T03:18:50.239Z,100.03
2018-11-26T03:21:25.809Z,100.57
2018-11-26T03:24:01.079Z,98.93
2018-11-26T03:26:36.845Z,98.13
2018-11-26T03:29:12.615Z,86.43
2018-11-26T03:31:47.632Z,92.30
2018-11-26T03:34:22.647Z,96.90
2018-11-26T03:36:58.397Z,101.40
2018-11-26T03:39:34.366Z,94.67
2018-11-26T03:42:09.410Z,103.40
2018-11-26T03:44:45.186Z,97.47
2018-11-26T03:47:20.973Z,101.10
2018-11-26T03:49:57.024Z,101.50
2018-11-26T03:52:33.830Z,99.13
2018-11-26T03:55:10.106Z,92.17
2018-11-26T03:57:45.533Z,100.63
2018-11-26T04:00:21.497Z,101.90
2018-11-26T04:02:57.262Z,110.17
2018-11-26T04:05:32.497Z,101.53
2018-11-26T04:08:08.219Z,98.83
2018-11-26T04:10:43.353Z,94.00
2018-11-26T04:13:18.939Z,94.70
2018-11-26T04:15:54.891Z,94.53
2018-11-26T04:18:30.596Z,94.80
2018-11-26T04:21:06.570Z,102.53
2018-11-26T04:23:42.404Z,102.97
2018-11-26T04:26:18.356Z,100.97
2018-11-26T04:28:54.134Z,111.20
2018-11-26T04:31:29.982Z,97.93
2018-11-26T04:34:05.761Z,99.17
2018-11-26T04:36:40.780Z,100.33
2018-11-26T04:39:16.579Z,98.43
2018-11-26T04:41:51.769Z,96.83
2018-11-26T04:44:27.608Z,101.93
2018-11-26T04:47:03.700Z,111.10
2018-11-26T04:49:39.370Z,99.77
2018-11-26T04:52:14.425Z,107.07
2018-11-26T04:54:50.213Z,101.20
2018-11-26T04:57:25.137Z,99.13
2018-11-26T05:00:00.876Z,111.47
2018-11-26T05:02:36.949Z,108.97
2018-11-26T05:05:13.135Z,93.90
2018-11-26T05:07:48.267Z,102.07
2018-11-26T05:10:23.985Z,99.30
2018-11-26T05:13:00.012Z,108.87
2018-11-26T05:15:35.801Z,105.53
2018-11-26T05:18:10.808Z,103.57
2018-11-26T05:20:45.725Z,99.83
2018-11-26T05:23:21.744Z,104.93
2018-11-26T05:25:57.433Z,96.87
2018-11-26T05:28:32.547Z,103.20
2018-11-26T05:31:08.292Z,110.80
2018-11-26T05:33:44.382Z,102.77
2018-11-26T05:36:20.177Z,108.23
2018-11-26T05:38:56.085Z,107.00
2018-11-26T05:41:32.121Z,103.87
2018-11-26T05:44:08.141Z,120.83
2018-11-26T05:46:43.111Z,111.17
2018-11-26T05:49:18.161Z,106.80
2018-11-26T05:51:53.923Z,102.63
2018-11-26T05:54:29.146Z,104.97
2018-11-26T05:57:05.170Z,110.23
2018-11-26T05:59:40.987Z,108.60
2018-11-26T06:02:16.592Z,116.30
2018-11-26T06:04:52.512Z,113.03
2018-11-26T06:07:27.898Z,102.03
2018-11-26T06:10:03.811Z,108.23
2018-11-26T06:12:39.638Z,108.40
2018-11-26T06:15:15.697Z,111.17
2018-11-26T06:17:51.321Z,107.27
2018-11-26T06:20:27.316Z,104.90
2018-11-26T06:23:03.101Z,109.17
2018-11-26T06:25:39.019Z,111.77
2018-11-26T06:28:13.965Z,119.30
2018-11-26T06:30:49.063Z,107.63
2018-11-26T06:33:24.814Z,112.00
2018-11-26T06:36:00.860Z,111.83
2018-11-26T06:38:36.374Z,102.93
2018-11-26T06:41:12.178Z,99.47
2018-11-26T06:43:48.007Z,101.97
2018-11-26T06:46:24.018Z,92.37
2018-11-26T06:48:59.719Z,94.83
2018-11-26T06:51:34.828Z,107.40
2018-11-26T06:54:10.506Z,91.33
2018-11-26T06:56:46.576Z,106.70
2018-11-26T06:59:22.260Z,102.47
2018-11-26T07:01:58.177Z,90.23
2018-11-26T07:04:35.015Z,97.90
2018-11-26T07:07:10.725Z,102.50
2018-11-26T07:09:46.560Z,106.03
2018-11-26T07:12:22.570Z,93.80
2018-11-26T07:14:58.371Z,96.83
2018-11-26T07:17:34.401Z,99.50
2018-11-26T07:20:18.118Z,99.77
2018-11-26T07:22:53.138Z,98.10
2018-11-26T07:25:29.042Z,97.50
2018-11-26T07:28:06.897Z,95.93
2018-11-26T07:30:42.287Z,94.23
2018-11-26T07:33:18.303Z,101.93
2018-11-26T07:35:53.729Z,102.30
2018-11-26T07:38:29.723Z,100.50
2018-11-26T07:41:06.223Z,91.00
2018-11-26T07:43:41.431Z,95.83
2018-11-26T07:46:17.249Z,95.97
2018-11-26T07:48:53.274Z,94.80
2018-11-26T07:51:28.913Z,96.27
2018-11-26T07:54:04.827Z,86.67
2018-11-26T07:56:40.596Z,93.43
2018-11-26T07:59:16.520Z,90.50
2018-11-26T08:01:52.320Z,92.03
2018-11-26T08:04:27.321Z,91.50
2018-11-26T08:07:02.332Z,93.70
2018-11-26T08:09:38.241Z,91.47
2018-11-26T08:12:15.119Z,87.43
2018-11-26T08:14:50.430Z,87.97
2018-11-26T08:17:25.848Z,98.07
2018-11-26T08:20:02.202Z,98.47
2018-11-26T08:22:37.192Z,95.27
2018-11-26T08:25:13.427Z,95.47
2018-11-26T08:27:49.581Z,90.97
2018-11-26T08:30:26.319Z,92.33
2018-11-26T08:33:01.971Z,91.93
2018-11-26T08:35:37.837Z,91.73
2018-11-26T08:38:19.120Z,93.03
2018-11-26T08:40:59.837Z,83.47
2018-11-26T08:43:39.461Z,93.07
2018-11-26T08:46:20.547Z,94.70
2018-11-26T08:49:01.069Z,90.17
2018-11-26T08:51:36.562Z,93.20
2018-11-26T08:54:12.578Z,94.00
2018-11-26T08:56:47.864Z,75.17
2018-11-26T08:59:23.778Z,81.50
2018-11-26T09:02:00.465Z,83.00
2018-11-26T09:04:41.423Z,85.67
2018-11-26T09:07:17.565Z,86.40
2018-11-26T09:09:52.838Z,84.10
2018-11-26T09:12:28.776Z,88.87
2018-11-26T09:15:05.244Z,89.73
2018-11-26T09:17:40.393Z,77.07
2018-11-26T09:20:16.147Z,81.80
2018-11-26T09:22:51.303Z,87.37
2018-11-26T09:25:26.234Z,81.33
2018-11-26T09:28:02.194Z,79.30
2018-11-26T09:30:38.848Z,82.80
2018-11-26T09:33:13.773Z,77.87
2018-11-26T09:35:49.750Z,89.33
2018-11-26T09:38:25.630Z,90.07
2018-11-26T09:41:02.640Z,75.43
2018-11-26T09:43:37.863Z,85.40
2018-11-26T09:46:33.846Z,82.53
2018-11-26T09:49:09.373Z,76.53
2018-11-26T09:51:45.221Z,80.43
2018-11-26T09:54:25.847Z,81.20
2018-11-26T09:56:57.029Z,85.93
2018-11-26T09:59:32.898Z,85.37
2018-11-26T10:02:08.843Z,79.87
2018-11-26T10:04:44.751Z,77.87
2018-11-26T10:07:22.229Z,84.93
2018-11-26T10:09:57.488Z,74.93
2018-11-26T10:12:33.378Z,73.97
2018-11-26T10:15:14.110Z,81.27
2018-11-26T10:17:50.030Z,81.07
2018-11-26T10:20:25.853Z,83.53
2018-11-26T10:23:01.766Z,73.73
2018-11-26T10:25:37.644Z,77.50
2018-11-26T10:28:12.574Z,75.73
2018-11-26T10:30:47.612Z,70.10
2018-11-26T10:33:22.597Z,72.90
2018-11-26T10:35:58.561Z,77.07
2018-11-26T10:38:34.321Z,75.63
2018-11-26T10:41:09.208Z,76.33
2018-11-26T10:43:44.321Z,76.53
2018-11-26T10:46:20.289Z,69.67
2018-11-26T10:48:56.304Z,75.70
2018-11-26T10:51:32.277Z,74.80
2018-11-26T10:54:07.278Z,80.13
2018-11-26T10:56:42.272Z,86.33
2018-11-26T10:59:18.011Z,84.13
2018-11-26T11:01:58.724Z,78.07
2018-11-26T11:04:34.146Z,84.33
2018-11-26T11:07:10.091Z,79.30
2018-11-26T11:09:45.843Z,81.37
2018-11-26T11:12:21.703Z,82.00
2018-11-26T11:14:57.393Z,79.67
2018-11-26T11:17:33.539Z,82.07
2018-11-26T11:20:14.553Z,83.77
2018-11-26T11:22:50.015Z,86.70
2018-11-26T11:25:25.164Z,77.63
2018-11-26T11:28:01.495Z,80.57
2018-11-26T11:30:36.642Z,92.60
2018-11-26T11:35:47.399Z,83.30
2018-11-26T11:38:23.163Z,79.23
2018-11-26T11:40:58.274Z,82.40
2018-11-26T11:43:34.160Z,83.87
2018-11-26T11:46:10.013Z,80.97
2018-11-26T11:48:44.970Z,82.07
2018-11-26T11:51:21.028Z,81.23
2018-11-26T11:53:56.933Z,86.27
2018-11-26T11:56:32.939Z,91.03
2018-11-26T11:59:08.450Z,90.53
2018-11-26T12:01:43.898Z,86.90
2018-11-26T12:04:19.765Z,90.40
2018-11-26T12:06:54.896Z,89.47
2018-11-26T12:09:30.647Z,64.40
2018-11-26T12:12:06.534Z,89.20
2018-11-26T12:14:42.461Z,90.23
2018-11-26T12:17:18.310Z,94.20
2018-11-26T12:19:53.312Z,92.47
2018-11-26T12:22:29.179Z,89.00
2018-11-26T12:25:05.869Z,99.00
2018-11-26T12:27:40.974Z,98.13
2018-11-26T12:30:18.634Z,96.90
2018-11-26T12:32:54.034Z,95.57
2018-11-26T12:35:29.171Z,92.57
2018-11-26T12:38:04.280Z,100.97
2018-11-26T12:40:39.463Z,94.43
2018-11-26T12:43:14.984Z,102.17
2018-11-26T12:45:50.420Z,98.47
2018-11-26T12:48:25.459Z,107.13
2018-11-26T12:51:00.549Z,103.93
2018-11-26T12:53:36.191Z,100.73
2018-11-26T12:56:11.691Z,95.37
2018-11-26T12:58:46.921Z,105.50
2018-11-26T13:01:21.861Z,94.70
2018-11-26T13:03:58.349Z,93.30
2018-11-26T13:06:33.667Z,97.10
2018-11-26T13:09:09.148Z,103.80
2018-11-26T13:11:44.559Z,102.80
2018-11-26T13:14:19.480Z,96.47
2018-11-26T13:16:55.238Z,104.47
2018-11-26T13:19:30.997Z,96.47
2018-11-26T13:22:07.096Z,99.80
2018-11-26T13:24:42.676Z,96.33
2018-11-26T13:27:17.853Z,103.03
2018-11-26T13:29:53.304Z,89.87
2018-11-26T13:32:29.263Z,94.23
2018-11-26T13:35:07.175Z,99.03
2018-11-26T13:37:42.421Z,97.53
2018-11-26T13:40:19.017Z,98.67
2018-11-26T13:42:54.957Z,97.00
2018-11-26T13:45:34.732Z,92.27
2018-11-26T13:48:11.135Z,96.40
2018-11-26T13:50:54.103Z,94.40
2018-11-26T13:53:29.708Z,96.17
2018-11-26T13:56:04.717Z,108.97
2018-11-26T13:58:40.037Z,102.87
2018-11-26T14:01:15.473Z,92.70
2018-11-26T14:03:51.997Z,101.40
2018-11-26T14:06:27.143Z,95.80
2018-11-26T14:09:02.717Z,96.27
2018-11-26T14:11:37.982Z,101.90
2018-11-26T14:14:13.615Z,91.87
2018-11-26T14:16:49.280Z,87.77
2018-11-26T14:19:25.075Z,90.00
2018-11-26T14:22:00.993Z,93.23
2018-11-26T14:24:36.823Z,100.50
2018-11-26T14:27:12.187Z,94.80
2018-11-26T14:29:48.123Z,94.70
2018-11-26T14:32:23.948Z,101.73
2018-11-26T14:34:59.359Z,105.07
2018-11-26T14:37:34.713Z,100.33
2018-11-26T14:40:13.323Z,113.77
2018-11-26T14:42:49.023Z,103.47
2018-11-26T14:45:24.286Z,104.43
2018-11-26T14:48:00.344Z,95.13
2018-11-26T14:50:35.567Z,98.87
2018-11-26T14:53:14.198Z,104.20
2018-11-26T14:55:49.855Z,105.23
2018-11-26T14:58:25.505Z,98.70
2018-11-26T15:01:00.445Z,102.27
2018-11-26T15:03:35.432Z,107.13
2018-11-26T15:06:11.371Z,106.50
2018-11-26T15:08:46.483Z,104.93
2018-11-26T15:11:21.721Z,111.27
2018-11-26T15:13:56.817Z,100.17
2018-11-26T15:16:32.652Z,102.37
2018-11-26T15:19:07.700Z,107.13
2018-11-26T15:21:43.455Z,106.80
2018-11-26T15:24:19.120Z,106.17
2018-11-26T15:26:54.023Z,114.00
2018-11-26T15:29:29.698Z,106.07
2018-11-26T15:32:05.179Z,101.93
2018-11-26T15:34:40.778Z,96.63
2018-11-26T15:37:16.533Z,98.23
2018-11-26T15:39:53.457Z,102.03
2018-11-26T15:42:29.278Z,98.83
2018-11-26T15:45:07.044Z,90.90
2018-11-26T15:47:42.004Z,96.87
2018-11-26T15:50:17.766Z,93.77
2018-11-26T15:52:53.092Z,94.93
2018-11-26T15:55:28.177Z,97.53
2018-11-26T15:58:03.740Z,97.00
2018-11-26T16:00:39.182Z,96.33
2018-11-26T16:03:14.294Z,91.07
2018-11-26T16:05:49.373Z,102.20
2018-11-26T16:08:24.774Z,84.90
2018-11-26T16:11:00.579Z,96.73
2018-11-26T16:13:35.583Z,97.23
2018-11-26T16:16:11.100Z,85.63
2018-11-26T16:18:46.332Z,97.10
2018-11-26T16:21:22.610Z,84.50
2018-11-26T16:23:57.620Z,84.77
2018-11-26T16:26:33.102Z,90.27
2018-11-26T16:29:08.356Z,86.23
2018-11-26T16:31:43.883Z,89.40
2018-11-26T16:34:18.957Z,83.50
2018-11-26T16:36:53.961Z,84.67
2018-11-26T16:39:29.552Z,91.63
2018-11-26T16:42:04.908Z,93.87
2018-11-26T16:44:39.942Z,89.80
2018-11-26T16:47:14.998Z,95.47
2018-11-26T16:49:50.262Z,88.77
2018-11-26T16:52:25.499Z,91.63
2018-11-26T16:55:00.543Z,89.37
2018-11-26T16:57:35.961Z,91.33
2018-11-26T17:00:21.814Z,97.23
2018-11-26T17:02:58.784Z,89.13
2018-11-26T17:05:36.137Z,93.40
2018-11-26T17:08:14.730Z,91.87
2018-11-26T17:10:49.906Z,96.93
2018-11-26T17:13:25.209Z,92.23
2018-11-26T17:16:00.261Z,92.07
2018-11-26T17:18:35.474Z,90.67
2018-11-26T17:21:10.824Z,95.13
2018-11-26T17:23:45.763Z,93.17
2018-11-26T17:26:21.645Z,95.37
2018-11-26T17:28:56.750Z,94.07
2018-11-26T17:31:31.974Z,93.40
2018-11-26T17:34:07.448Z,93.40
2018-11-26T17:36:43.079Z,91.10
2018-11-26T17:39:18.379Z,93.10
2018-11-26T17:41:54.112Z,89.80
2018-11-26T17:44:29.554Z,96.17
2018-11-26T17:47:05.297Z,96.03
2018-11-26T17:49:40.995Z,92.30
2018-11-26T17:52:16.842Z,100.50
2018-11-26T17:54:52.033Z,92.97
2018-11-26T17:57:27.824Z,93.17
2018-11-26T18:00:03.021Z,99.30
2018-11-26T18:02:38.904Z,94.97
2018-11-26T18:05:15.858Z,100.27
2018-11-26T18:07:56.434Z,95.37
2018-11-26T18:10:31.738Z,99.07
2018-11-26T18:13:07.222Z,96.53
2018-11-26T18:15:42.261Z,92.40
2018-11-26T18:18:19.641Z,100.37
2018-11-26T18:20:55.354Z,108.00
2018-11-26T18:23:30.289Z,96.17
2018-11-26T18:26:05.415Z,97.80
2018-11-26T18:28:41.794Z,100.00
2018-11-26T18:31:17.717Z,105.17
2018-11-26T18:33:52.696Z,92.73
2018-11-26T18:36:28.519Z,98.03
2018-11-26T18:39:04.134Z,100.80
2018-11-26T18:41:39.845Z,97.40
2018-11-26T18:44:15.632Z,107.47
2018-11-26T18:46:50.669Z,89.53
2018-11-26T18:49:26.219Z,102.43
2018-11-26T18:52:01.550Z,92.10
2018-11-26T18:54:36.961Z,95.33
2018-11-26T18:57:12.100Z,89.60
2018-11-26T18:59:47.532Z,94.70
2018-11-26T19:02:23.188Z,103.50
2018-11-26T19:04:58.611Z,103.23
2018-11-26T19:07:33.586Z,100.27
2018-11-26T19:10:11.819Z,93.13
2018-11-26T19:12:48.982Z,100.77
2018-11-26T19:15:26.356Z,101.73
2018-11-26T19:18:11.103Z,95.13
2018-11-26T19:20:46.966Z,88.27
2018-11-26T19:23:23.004Z,98.23
2018-11-26T19:25:58.167Z,89.30
2018-11-26T19:28:33.234Z,97.27
2018-11-26T19:31:08.583Z,105.23
2018-11-26T19:33:43.653Z,91.83
2018-11-26T19:36:18.563Z,91.07
2018-11-26T19:38:53.739Z,92.63
2018-11-26T19:41:29.033Z,97.67
2018-11-26T19:44:05.018Z,92.43
2018-11-26T19:46:39.998Z,91.87
2018-11-26T19:49:15.912Z,91.83
2018-11-26T19:51:50.874Z,89.53
2018-11-26T19:54:26.283Z,90.40
2018-11-26T19:57:02.050Z,96.93
2018-11-26T19:59:37.968Z,99.23
2018-11-26T20:02:13.043Z,96.03
2018-11-26T20:04:53.153Z,96.93
2018-11-26T20:07:28.828Z,85.77
2018-11-26T20:10:04.672Z,90.57
2018-11-26T20:12:40.235Z,91.40
2018-11-26T20:15:16.962Z,94.50
2018-11-26T20:17:52.161Z,84.33
2018-11-26T20:20:27.332Z,78.97
2018-11-26T20:23:02.747Z,89.20
2018-11-26T20:25:37.845Z,84.63
2018-11-26T20:28:13.711Z,84.57
2018-11-26T20:30:48.830Z,85.37
2018-11-26T20:33:24.187Z,84.73
2018-11-26T20:35:59.682Z,84.80
2018-11-26T20:38:34.902Z,77.97
2018-11-26T20:41:10.861Z,82.77
2018-11-26T20:43:45.763Z,86.00
2018-11-26T20:46:20.998Z,84.30
2018-11-26T20:48:56.002Z,77.60
2018-11-26T20:51:31.253Z,80.00
2018-11-26T20:54:06.801Z,79.97
2018-11-26T20:56:42.644Z,79.47
2018-11-26T20:59:17.683Z,87.43
2018-11-26T21:01:53.867Z,84.37
2018-11-26T21:04:29.963Z,87.17
2018-11-26T21:07:06.113Z,81.13
2018-11-26T21:09:42.123Z,83.70
2018-11-26T21:12:18.296Z,86.83
2018-11-26T21:14:53.747Z,85.47
2018-11-26T21:17:29.713Z,81.23
2018-11-26T21:20:10.572Z,83.90
2018-11-26T21:22:46.428Z,81.47
2018-11-26T21:25:22.508Z,77.50
2018-11-26T21:27:58.340Z,78.07
2018-11-26T21:30:34.001Z,77.20
2018-11-26T21:33:09.893Z,80.50
2018-11-26T21:35:45.696Z,80.50
2018-11-26T21:38:21.138Z,77.73
2018-11-26T21:40:57.026Z,80.27
2018-11-26T21:43:32.839Z,76.80
2018-11-26T21:46:08.775Z,76.70
2018-11-26T21:48:44.597Z,76.60
2018-11-26T21:51:20.696Z,80.27
2018-11-26T21:53:55.809Z,82.10
2018-11-26T21:56:31.178Z,79.13
2018-11-26T21:59:06.298Z,91.43
2018-11-26T22:01:42.256Z,81.17
2018-11-26T22:04:18.225Z,77.27
2018-11-26T22:06:54.497Z,74.73
2018-11-26T22:09:30.313Z,81.20
2018-11-26T22:12:05.951Z,74.87
2018-11-26T22:14:41.865Z,70.90
2018-11-26T22:17:17.509Z,75.53
2018-11-26T22:19:53.360Z,84.67
2018-11-26T22:22:29.266Z,77.87
2018-11-26T22:25:05.341Z,75.97
2018-11-26T22:27:40.904Z,78.97
2018-11-26T22:30:20.079Z,74.30
2018-11-26T22:32:55.778Z,80.60
2018-11-26T22:35:31.116Z,86.83
2018-11-26T22:38:07.331Z,83.20
2018-11-26T22:40:43.182Z,79.47
2018-11-26T22:43:18.915Z,77.83
2018-11-26T22:45:54.698Z,79.27
2018-11-26T22:48:29.808Z,76.10
2018-11-26T22:51:05.282Z,84.63
2018-11-26T22:53:41.147Z,84.10
2018-11-26T22:56:16.701Z,77.77
2018-11-26T22:58:52.714Z,80.03
2018-11-26T23:01:27.728Z,72.40
2018-11-26T23:04:04.769Z,77.07
2018-11-26T23:06:40.048Z,77.30
2018-11-26T23:09:15.017Z,78.27
2018-11-26T23:11:50.805Z,77.33
2018-11-26T23:14:26.088Z,82.80
2018-11-26T23:17:01.996Z,84.03
2018-11-26T23:19:37.067Z,77.77
2018-11-26T23:22:12.171Z,83.07
2018-11-26T23:24:47.150Z,81.87
2018-11-26T23:27:23.085Z,82.23
2018-11-26T23:29:58.139Z,85.80
2018-11-26T23:32:33.305Z,82.73
2018-11-26T23:35:08.824Z,91.63
2018-11-26T23:37:44.041Z,92.47
2018-11-26T23:40:19.401Z,86.50
2018-11-26T23:42:54.943Z,83.00
2018-11-26T23:45:30.333Z,80.53
2018-11-26T23:48:06.285Z,80.70
2018-11-26T23:50:41.395Z,81.70
2018-11-26T23:53:16.491Z,81.63
2018-11-26T23:55:51.886Z,91.10
2018-11-26T23:58:27.460Z,79.23
